Terminal Aerodrome Forecast
Issued by NWS

Home | Current Version | Previous Version | Text Only | Print | Product List | Glossary On
Versions: 1 2 3 4 5 6 7 8 9 10 11 12 13 14
000
FTUS43 KMPX 030500
TAFRWF
TAF
KRWF 030520Z 0306/0406 19005KT P6SM SCT120
     FM030900 18009KT P6SM VCSH SCT050 BKN100
     FM031200 17010KT P6SM VCTS BKN045CB OVC090
      TEMPO 0312/0315 4SM SHRA OVC035
     FM031700 18014G22KT P6SM SCT040 BKN100
     FM040000 18009KT P6SM BKN040=

USA.gov is the U.S. government's official web portal to all federal, state and local government web resources and services.